Time;durP1;ratioP1;P1;durP2;ratioP2;P2;SDS_P1;SDS_P2;PMS_P1;PMS_P2;Temp;Humidity;BMP_temperature;BMP_pressure;BME280_temperature;BME280_humidity;BME280_pressure;Samples;Min_cycle;Max_cycle;Signal;HPM_P1;HPM_P2
2023/07/04 00:09:19;;;;;;;20.80;13.20;;;;;;;16.28;60.28;98304.96;432699;1259;98851;-42
2023/07/04 00:19:29;;;;;;;28.30;12.50;;;;;;;16.10;60.64;98319.07;432622;1264;112244;-42
2023/07/04 00:29:38;;;;;;;26.10;13.40;;;;;;;16.08;60.99;98318.39;432625;1272;107680;-44
2023/07/04 00:39:45;;;;;;;22.80;13.10;;;;;;;16.13;61.44;98323.80;432527;1263;99259;-43
2023/07/04 01:20:24;;;;;;;19.50;12.90;;;;;;;15.77;62.49;98320.34;432561;1263;108370;-42
2023/07/04 01:30:31;;;;;;;22.00;12.50;;;;;;;15.51;63.08;98323.30;434584;1256;99270;-42
2023/07/04 01:40:39;;;;;;;24.60;14.00;;;;;;;15.56;63.94;98323.77;434191;1256;107638;-41
2023/07/04 01:50:46;;;;;;;24.90;14.30;;;;;;;15.62;64.34;98322.84;434039;1261;98246;-41
2023/07/04 02:00:55;;;;;;;27.30;14.50;;;;;;;15.58;64.52;98318.71;434156;1256;111805;-42
2023/07/04 02:11:02;;;;;;;26.80;14.30;;;;;;;15.39;64.61;98320.86;434039;1260;107956;-42
2023/07/04 02:21:09;;;;;;;28.00;15.30;;;;;;;15.35;65.25;98324.27;434163;1262;99297;-42
2023/07/04 02:31:16;;;;;;;28.50;16.80;;;;;;;15.37;65.50;98317.35;434169;1256;107449;-43
2023/07/04 02:41:24;;;;;;;23.60;14.60;;;;;;;15.40;65.72;98308.83;433830;1261;99336;-44
2023/07/04 02:51:32;;;;;;;28.60;14.20;;;;;;;15.44;65.85;98317.18;434015;1262;112997;-42
2023/07/04 03:01:39;;;;;;;26.20;16.20;;;;;;;15.36;66.22;98317.45;434122;1256;107450;-42
2023/07/04 03:11:46;;;;;;;28.20;17.10;;;;;;;15.44;66.71;98320.27;434130;1256;99304;-42
2023/07/04 03:21:53;;;;;;;27.60;14.50;;;;;;;15.45;66.75;98313.02;434007;1262;107402;-42
2023/07/04 03:32:00;;;;;;;26.10;14.90;;;;;;;15.45;66.66;98313.35;433868;1262;389266;-41
2023/07/04 03:42:07;;;;;;;24.60;14.90;;;;;;;15.35;66.73;98316.55;434070;1260;111716;-42
2023/07/04 03:52:14;;;;;;;21.40;13.90;;;;;;;16.26;67.24;98317.34;434117;1257;108432;-42
2023/07/04 04:02:21;;;;;;;28.80;15.30;;;;;;;17.49;66.32;98322.94;434161;1256;99193;-43
2023/07/04 04:12:27;;;;;;;23.30;13.60;;;;;;;18.95;65.66;98327.46;434050;1256;109501;-44
2023/07/04 04:22:34;;;;;;;19.10;13.70;;;;;;;20.98;64.04;98324.44;433974;1256;99279;-42
2023/07/04 04:32:44;;;;;;;22.60;13.20;;;;;;;22.68;62.35;98342.55;434252;1260;110417;-42
2023/07/04 04:52:57;;;;;;;;;;;;;;;25.18;59.06;98361.45;434153;1262;99308;-41
2023/07/04 05:03:06;;;;;;;15.50;10.10;;;;;;;25.67;57.91;98370.71;434180;1262;106854;-43
2023/07/04 05:13:13;;;;;;;19.10;10.30;;;;;;;26.00;56.25;98369.20;433998;1260;98839;-42
2023/07/04 05:23:20;;;;;;;14.20;9.40;;;;;;;26.29;54.35;98376.89;433926;1262;110886;-42
2023/07/04 05:33:28;;;;;;;16.50;6.80;;;;;;;26.49;52.42;98376.13;434088;1256;109340;-44
2023/07/04 05:43:35;;;;;;;14.90;7.70;;;;;;;27.07;50.58;98382.90;434159;1262;99228;-44
2023/07/04 05:53:42;;;;;;;9.00;5.30;;;;;;;27.29;48.26;98388.34;433915;1256;108654;-42
2023/07/04 06:03:50;;;;;;;9.10;5.10;;;;;;;27.63;46.63;98394.71;434090;1256;99211;-42
2023/07/04 06:13:58;;;;;;;13.80;5.80;;;;;;;27.88;44.96;98400.59;434148;1260;112157;-43
2023/07/04 06:34:11;;;;;;;11.90;5.00;;;;;;;28.41;43.42;98402.70;434099;1260;99259;-43
2023/07/04 06:44:18;;;;;;;14.80;6.50;;;;;;;28.36;41.92;98412.53;434099;1262;108864;-43
2023/07/04 06:54:26;;;;;;;16.50;7.10;;;;;;;28.34;40.76;98416.83;434085;1260;98056;-43
2023/07/04 07:04:33;;;;;;;13.40;5.90;;;;;;;27.98;39.47;98421.19;434020;1256;112113;-43
2023/07/04 07:14:39;;;;;;;12.80;5.10;;;;;;;28.22;39.78;98427.23;434071;1260;108261;-43
2023/07/04 07:24:46;;;;;;;10.00;4.90;;;;;;;28.51;39.39;98428.34;434105;1261;98828;-42
2023/07/04 07:34:53;;;;;;;14.70;4.90;;;;;;;28.94;39.17;98428.79;434034;1258;108367;-42
2023/07/04 07:45:02;;;;;;;10.80;5.20;;;;;;;29.06;38.49;98425.64;434000;1262;98341;-43
2023/07/04 07:55:09;;;;;;;10.40;5.40;;;;;;;28.94;38.33;98428.73;433979;1260;112858;-44
2023/07/04 08:05:17;;;;;;;11.70;5.70;;;;;;;29.07;37.67;98420.13;434013;1270;109240;-44
2023/07/04 08:15:23;;;;;;;14.50;5.50;;;;;;;28.95;37.76;98421.29;434156;1260;97963;-42
2023/07/04 08:25:30;;;;;;;9.90;5.10;;;;;;;29.02;37.32;98424.91;434031;1260;108890;-42
2023/07/04 08:35:38;;;;;;;10.20;5.50;;;;;;;28.88;36.85;98422.52;434032;1269;99323;-41
2023/07/04 08:55:51;;;;;;;9.60;5.00;;;;;;;28.97;36.53;98421.79;434087;1257;107299;-42
2023/07/04 09:16:08;;;;;;;6.50;3.60;;;;;;;28.87;36.34;98429.48;433955;1260;108470;-42
2023/07/04 09:26:18;;;;;;;6.30;3.80;;;;;;;28.98;36.19;98431.77;434166;1263;98469;-42
2023/07/04 09:36:26;;;;;;;9.80;4.70;;;;;;;28.77;34.82;98424.10;434051;1261;110889;-43
2023/07/04 09:46:36;;;;;;;14.60;4.80;;;;;;;28.12;35.68;98421.92;434080;1259;109898;-43
2023/07/04 09:56:44;;;;;;;9.10;4.30;;;;;;;28.51;36.12;98415.52;434065;1262;99266;-42
2023/07/04 10:06:53;;;;;;;7.00;5.00;;;;;;;28.66;35.56;98409.89;434164;1263;106712;-42
2023/07/04 10:17:08;;;;;;;9.00;4.50;;;;;;;28.50;35.63;98405.33;434045;1258;98823;-43
2023/07/04 10:27:17;;;;;;;9.00;6.40;;;;;;;28.74;35.99;98396.38;434248;1257;111734;-43
2023/07/04 10:37:24;;;;;;;9.30;5.90;;;;;;;28.97;35.88;98392.40;434001;1257;107825;-41
2023/07/04 10:47:30;;;;;;;16.20;7.70;;;;;;;28.68;35.05;98395.14;434142;1260;99244;-42
2023/07/04 10:57:37;;;;;;;14.00;8.00;;;;;;;28.78;35.48;98402.23;434187;1258;109002;-41
2023/07/04 11:07:47;;;;;;;11.80;8.20;;;;;;;28.97;35.61;98396.53;434016;1269;99227;-42
2023/07/04 11:17:54;;;;;;;19.10;10.40;;;;;;;29.04;35.47;98388.88;434143;1260;112337;-43
2023/07/04 11:38:33;;;;;;;20.30;15.80;;;;;;;29.02;35.38;98386.20;434123;1258;99204;-43
2023/07/04 11:48:50;;;;;;;19.00;13.40;;;;;;;29.02;34.21;98395.05;434025;1260;107621;-41
2023/07/04 11:59:29;;;;;;;15.60;11.70;;;;;;;28.85;34.10;98391.57;434094;1257;98014;-43
2023/07/04 12:09:53;;;;;;;16.10;8.80;;;;;;;28.84;33.81;98387.96;434117;1258;111962;-41
2023/07/04 12:30:14;;;;;;;6.40;5.10;;;;;;;28.98;33.55;98382.46;433997;1269;99252;-41
2023/07/04 12:40:28;;;;;;;4.90;3.50;;;;;;;28.73;33.44;98384.15;434083;1256;108535;-42
2023/07/04 12:50:38;;;;;;;5.70;2.90;;;;;;;28.89;33.91;98372.47;433943;1261;99263;-42
2023/07/04 13:00:46;;;;;;;3.90;2.80;;;;;;;28.59;33.90;98368.06;434108;1257;112446;-43
2023/07/04 13:10:55;;;;;;;4.50;2.90;;;;;;;28.65;34.48;98359.79;433674;1260;108198;-41
2023/07/04 13:21:02;;;;;;;4.40;2.50;;;;;;;28.20;34.47;98365.42;433985;1260;99234;-42
2023/07/04 13:31:19;;;;;;;27.10;3.70;;;;;;;27.55;35.30;98375.64;433999;1257;108682;-42
2023/07/04 13:41:28;;;;;;;3.90;2.20;;;;;;;27.57;36.16;98377.79;434075;1257;97983;-42
2023/07/04 13:51:35;;;;;;;3.00;1.60;;;;;;;27.75;36.89;98375.27;434073;1257;111788;-43
2023/07/04 14:01:42;;;;;;;5.00;2.00;;;;;;;28.04;36.85;98374.67;434133;1257;107240;-41
2023/07/04 14:11:57;;;;;;;4.20;2.60;;;;;;;28.05;37.12;98373.36;434044;1260;99333;-42
2023/07/04 14:22:03;;;;;;;4.10;1.90;;;;;;;28.06;37.39;98369.66;434160;1256;108157;-41
2023/07/04 14:32:09;;;;;;;;;;;;;;;28.31;37.54;98362.05;434005;1261;99256;-44
2023/07/04 14:42:15;;;;;;;;;;;;;;;28.23;37.29;98357.73;434166;1260;112106;-40
2023/07/04 14:52:36;;;;;;;14.20;3.20;;;;;;;27.87;37.18;98350.88;434028;1256;108376;-41
2023/07/04 15:02:42;;;;;;;2.80;1.90;;;;;;;27.72;37.42;98350.27;434090;1257;98788;-42
2023/07/04 15:12:47;;;;;;;3.60;2.00;;;;;;;27.55;37.65;98356.18;434134;1256;108018;-41
2023/07/04 15:33:00;;;;;;;1.80;1.60;;;;;;;27.91;37.40;98344.13;433840;1261;453611;-42
2023/07/04 15:43:08;;;;;;;5.10;1.90;;;;;;;27.64;37.18;98344.14;433975;1262;109845;-41
2023/07/04 15:53:15;;;;;;;2.80;1.80;;;;;;;27.13;37.55;98336.40;434003;1256;99240;-41
2023/07/04 16:03:22;;;;;;;2.60;2.20;;;;;;;26.68;38.19;98336.94;433906;1256;107385;-41
2023/07/04 16:13:29;;;;;;;2.70;1.70;;;;;;;26.67;38.91;98336.60;433968;1256;99256;-41
2023/07/04 16:23:36;;;;;;;3.20;1.90;;;;;;;26.76;38.83;98336.19;433963;1260;111981;-41
2023/07/04 16:33:43;;;;;;;3.00;2.00;;;;;;;26.60;38.93;98338.88;433859;1256;107524;-41
2023/07/04 16:43:51;;;;;;;1.90;1.70;;;;;;;26.24;39.53;98346.12;434055;1256;99271;-42
2023/07/04 16:53:58;;;;;;;5.50;2.40;;;;;;;26.16;39.83;98340.61;434048;1255;109527;-40
2023/07/04 17:04:05;;;;;;;5.60;2.10;;;;;;;26.09;40.01;98341.98;433957;1271;97980;-41
2023/07/04 17:14:12;;;;;;;4.80;2.30;;;;;;;25.81;40.07;98341.00;434031;1260;112496;-41
2023/07/04 17:24:19;;;;;;;3.00;2.50;;;;;;;25.59;40.29;98340.81;434055;1256;108505;-42
2023/07/04 17:34:28;;;;;;;7.30;3.60;;;;;;;25.51;40.62;98348.79;434001;1260;99227;-42
2023/07/04 17:44:34;;;;;;;13.80;4.30;;;;;;;25.39;40.98;98354.46;433927;1256;108326;-42
2023/07/04 17:54:41;;;;;;;7.50;4.00;;;;;;;25.18;41.47;98356.05;433941;1256;98580;-43
2023/07/04 18:25:00;;;;;;;10.70;3.50;;;;;;;24.32;42.98;98385.36;434050;1256;99249;-42
2023/07/04 18:35:06;;;;;;;14.00;4.80;;;;;;;23.88;43.85;98398.33;434029;1260;108478;-43
2023/07/04 18:45:17;;;;;;;86.50;8.90;;;;;;;23.48;44.86;98398.96;433874;1256;99261;-44
2023/07/04 18:55:23;;;;;;;;;;;;;;;22.95;45.74;98407.29;434038;1261;110483;-43
2023/07/04 19:05:32;;;;;;;9.00;4.60;;;;;;;22.27;46.74;98420.03;434039;1261;107878;-42
2023/07/04 19:15:39;;;;;;;10.80;3.80;;;;;;;21.68;48.04;98430.66;433919;1265;99445;-41
2023/07/04 19:25:46;;;;;;;12.50;5.30;;;;;;;21.22;49.49;98443.19;434117;1256;108219;-41
2023/07/04 19:35:53;;;;;;;19.20;5.70;;;;;;;20.80;50.69;98457.03;433997;1255;99266;-43
2023/07/04 19:46:01;;;;;;;6.50;4.80;;;;;;;20.43;51.55;98463.02;433941;1258;111909;-42
2023/07/04 19:56:09;;;;;;;8.70;5.90;;;;;;;20.11;52.34;98465.31;433931;1260;108648;-42
2023/07/04 20:16:27;;;;;;;9.90;6.40;;;;;;;19.76;53.91;98465.38;433964;1256;108901;-43
2023/07/04 20:26:34;;;;;;;11.20;6.10;;;;;;;19.47;54.64;98464.73;434040;1256;98827;-42
2023/07/04 20:46:48;;;;;;;11.80;5.50;;;;;;;19.06;56.06;98480.59;433940;1255;107177;-40
2023/07/04 20:56:55;;;;;;;;;;;;;;;19.05;56.97;98489.75;434060;1260;99276;-42
2023/07/04 21:07:05;;;;;;;8.70;6.20;;;;;;;18.72;57.34;98497.82;433919;1256;108130;-42
2023/07/04 21:17:11;;;;;;;14.50;6.70;;;;;;;18.33;57.98;98501.90;433944;1258;98828;-47
2023/07/04 21:27:16;;;;;;;11.70;6.30;;;;;;;18.17;58.60;98506.23;434115;1257;112086;-41
2023/07/04 21:37:24;;;;;;;12.30;6.60;;;;;;;18.05;59.06;98504.44;433944;1260;107875;-41
2023/07/04 21:47:32;;;;;;;11.00;7.30;;;;;;;17.97;59.55;98507.27;434277;1260;99324;-42
2023/07/04 21:57:40;;;;;;;9.70;7.60;;;;;;;17.79;60.05;98511.42;434099;1260;109411;-42
2023/07/04 22:07:45;;;;;;;10.70;6.90;;;;;;;17.61;60.46;98515.54;433932;1261;99260;-42
2023/07/04 22:17:52;;;;;;;8.70;6.00;;;;;;;17.44;60.96;98532.63;434119;1260;111888;-41
2023/07/04 22:27:59;;;;;;;20.90;12.40;;;;;;;17.38;61.64;98539.30;434065;1262;107179;-40
2023/07/04 22:38:06;;;;;;;32.50;14.50;;;;;;;17.41;62.53;98539.94;434058;1262;99368;-41
2023/07/04 22:58:18;;;;;;;22.10;13.60;;;;;;;17.36;63.85;98535.85;433972;1261;99269;-42
2023/07/04 23:08:27;;;;;;;22.70;13.40;;;;;;;17.52;64.23;98540.19;434099;1256;112336;-40
2023/07/04 23:18:33;;;;;;;18.00;12.20;;;;;;;17.51;64.49;98543.89;434003;1256;107800;-43
2023/07/04 23:38:47;;;;;;;16.60;9.40;;;;;;;17.05;64.99;98555.23;433949;1260;108884;-42
2023/07/04 23:48:54;;;;;;;16.40;9.00;;;;;;;17.02;65.33;98556.36;434130;1272;99266;-43
2023/07/04 23:59:02;;;;;;;15.70;10.10;;;;;;;16.95;65.74;98555.48;434128;1260;110092;-43
